This is the latest recevied weather packets stored in our database for station/object SR5NLK-1. If no packets are shown the sender has not sent any weather packets the latest 10 day(s).
| Time | Temp. | Humidity | Pressure | Rain* | Wind** | Luminosity | Snow |
|---|---|---|---|---|---|---|---|
| 1787720117 | 10.56° C | 88% | 1000.5 hPa | 0 mm | - | - | - |
| 1787720102 | 19.44° C | 91% | 1075.2 hPa | 0 mm | - | - | - |
| 1787719802 | 18.33° C | 92% | 1084.6 hPa | 0 mm | - | - | - |
| 1787719781 | 10° C | 88% | 1056.4 hPa | 0 mm | - | - | - |
| 1787719502 | 17.78° C | 93% | 952.5 hPa | 0 mm | - | - | - |
| 1787719365 | 10° C | 88% | 1084.6 hPa | 0 mm | - | - | - |
| 1787719202 | 16.67° C | 94% | 1039.7 hPa | 0 mm | - | - | - |
| 1787718841 | 14.44° C | 93% | 1008 hPa | 0 mm | - | - | - |
| 1787718602 | 12.78° C | 92% | 1039.7 hPa | 0 mm | - | - | - |
| 1787718302 | 11.67° C | 90% | 1075.3 hPa | 0 mm | - | - | - |
| 1787718259 | 10° C | 88% | 1091.5 hPa | 0 mm | - | - | - |
| 1787718002 | 11.11° C | 89% | 1084.7 hPa | 0 mm | - | - | - |
| 1787717891 | 10° C | 88% | 998.3 hPa | 0 mm | - | - | - |
| 1787717702 | 10.56° C | 89% | 1043.5 hPa | 0 mm | - | - | - |
| 1787717417 | 10° C | 88% | 1036.5 hPa | 0 mm | - | - | - |
| 1787717402 | 10.56° C | 89% | 1034.1 hPa | 0 mm | - | - | - |
| 1787717102 | 10.56° C | 89% | 1035 hPa | 0 mm | - | - | - |
| 1787717011 | 10° C | 88% | 1081.5 hPa | 0 mm | - | - | - |
| 1787716861 | 10.56° C | 89% | 1036.6 hPa | 0 mm | - | - | - |
| 1787716802 | 10.56° C | 89% | 1036.6 hPa | 0 mm | - | - | - |
| 1787716605 | 10° C | 88% | 1090.9 hPa | 0 mm | - | - | - |
| 1787716503 | 10.56° C | 88% | 1007.7 hPa | 0 mm | - | - | - |
| 1787716202 | 10.56° C | 88% | 1000.5 hPa | 0 mm | - | - | - |
| 1787715902 | 10° C | 88% | 1056.4 hPa | 0 mm | - | - | - |
| 1787715715 | 10.56° C | 88% | 1087.8 hPa | 0 mm | - | - | - |
* Rain latest hour (hover to see other rain measurements)
** Current wind speed in m/s (hover to see current wind gust speed)